sensor_id;sensor_type;location;lat;lon;timestamp;temperature;humidity
68691;DHT22;55675;49.588;8.640;2022-08-19T00:00:16;23.50;66.50
68691;DHT22;55675;49.588;8.640;2022-08-19T00:02:43;23.50;66.80
68691;DHT22;55675;49.588;8.640;2022-08-19T00:05:10;23.50;66.50
68691;DHT22;55675;49.588;8.640;2022-08-19T00:07:37;23.50;66.30
68691;DHT22;55675;49.588;8.640;2022-08-19T00:10:04;23.50;66.70
68691;DHT22;55675;49.588;8.640;2022-08-19T00:12:30;23.50;66.50
68691;DHT22;55675;49.588;8.640;2022-08-19T00:14:55;23.60;67.00
68691;DHT22;55675;49.588;8.640;2022-08-19T00:17:21;23.50;67.30
68691;DHT22;55675;49.588;8.640;2022-08-19T00:19:46;23.50;67.00
68691;DHT22;55675;49.588;8.640;2022-08-19T00:22:12;23.50;67.10
68691;DHT22;55675;49.588;8.640;2022-08-19T00:24:37;23.40;67.00
68691;DHT22;55675;49.588;8.640;2022-08-19T00:27:04;23.40;66.90
68691;DHT22;55675;49.588;8.640;2022-08-19T00:29:30;23.40;66.80
68691;DHT22;55675;49.588;8.640;2022-08-19T00:31:56;23.40;66.90
68691;DHT22;55675;49.588;8.640;2022-08-19T00:34:24;23.30;67.00
68691;DHT22;55675;49.588;8.640;2022-08-19T00:36:51;23.30;67.20
68691;DHT22;55675;49.588;8.640;2022-08-19T00:39:17;23.20;67.50
68691;DHT22;55675;49.588;8.640;2022-08-19T00:41:44;23.20;67.80
68691;DHT22;55675;49.588;8.640;2022-08-19T00:44:15;23.20;67.80
68691;DHT22;55675;49.588;8.640;2022-08-19T00:46:43;23.20;68.00
68691;DHT22;55675;49.588;8.640;2022-08-19T00:49:16;23.20;68.30
68691;DHT22;55675;49.588;8.640;2022-08-19T00:51:45;23.20;68.20
68691;DHT22;55675;49.588;8.640;2022-08-19T00:54:12;23.10;68.60
68691;DHT22;55675;49.588;8.640;2022-08-19T00:56:37;23.10;68.70
68691;DHT22;55675;49.588;8.640;2022-08-19T00:59:04;23.20;68.60
68691;DHT22;55675;49.588;8.640;2022-08-19T01:01:37;23.20;68.80
68691;DHT22;55675;49.588;8.640;2022-08-19T01:04:03;23.20;68.80
68691;DHT22;55675;49.588;8.640;2022-08-19T01:06:30;23.20;68.80
68691;DHT22;55675;49.588;8.640;2022-08-19T01:08:58;23.10;68.90
68691;DHT22;55675;49.588;8.640;2022-08-19T01:11:25;23.00;69.00
68691;DHT22;55675;49.588;8.640;2022-08-19T01:13:53;23.00;69.30
68691;DHT22;55675;49.588;8.640;2022-08-19T01:16:20;23.00;69.40
68691;DHT22;55675;49.588;8.640;2022-08-19T01:18:47;23.00;69.40
68691;DHT22;55675;49.588;8.640;2022-08-19T01:21:22;23.00;69.40
68691;DHT22;55675;49.588;8.640;2022-08-19T01:23:50;23.00;69.50
68691;DHT22;55675;49.588;8.640;2022-08-19T01:26:19;23.00;69.50
68691;DHT22;55675;49.588;8.640;2022-08-19T01:28:47;23.00;69.60
68691;DHT22;55675;49.588;8.640;2022-08-19T01:31:17;23.10;69.70
68691;DHT22;55675;49.588;8.640;2022-08-19T01:33:43;23.10;69.50
68691;DHT22;55675;49.588;8.640;2022-08-19T01:36:13;23.10;69.80
68691;DHT22;55675;49.588;8.640;2022-08-19T01:38:41;23.20;69.70
68691;DHT22;55675;49.588;8.640;2022-08-19T01:41:09;23.20;69.40
68691;DHT22;55675;49.588;8.640;2022-08-19T01:43:35;23.30;69.40
68691;DHT22;55675;49.588;8.640;2022-08-19T01:46:01;23.20;69.40
68691;DHT22;55675;49.588;8.640;2022-08-19T01:48:36;23.20;69.40
68691;DHT22;55675;49.588;8.640;2022-08-19T01:51:02;23.20;69.20
68691;DHT22;55675;49.588;8.640;2022-08-19T01:53:28;23.20;69.30
68691;DHT22;55675;49.588;8.640;2022-08-19T01:55:54;23.20;69.30
68691;DHT22;55675;49.588;8.640;2022-08-19T01:58:24;23.10;69.40
68691;DHT22;55675;49.588;8.640;2022-08-19T02:00:51;23.00;69.40
68691;DHT22;55675;49.588;8.640;2022-08-19T02:03:16;23.00;69.80
68691;DHT22;55675;49.588;8.640;2022-08-19T02:05:43;22.90;69.90
68691;DHT22;55675;49.588;8.640;2022-08-19T02:08:09;22.80;70.30
68691;DHT22;55675;49.588;8.640;2022-08-19T02:10:40;22.80;70.40
68691;DHT22;55675;49.588;8.640;2022-08-19T02:13:06;22.70;70.60
68691;DHT22;55675;49.588;8.640;2022-08-19T02:15:31;22.80;70.80
68691;DHT22;55675;49.588;8.640;2022-08-19T02:17:57;22.70;71.20
68691;DHT22;55675;49.588;8.640;2022-08-19T02:20:23;22.70;71.20
68691;DHT22;55675;49.588;8.640;2022-08-19T02:22:49;22.70;71.40
68691;DHT22;55675;49.588;8.640;2022-08-19T02:25:14;22.70;71.40
68691;DHT22;55675;49.588;8.640;2022-08-19T02:27:41;22.70;71.30
68691;DHT22;55675;49.588;8.640;2022-08-19T02:30:11;22.70;71.20
68691;DHT22;55675;49.588;8.640;2022-08-19T02:32:37;22.70;70.90
68691;DHT22;55675;49.588;8.640;2022-08-19T02:35:04;22.70;70.90
68691;DHT22;55675;49.588;8.640;2022-08-19T02:37:29;22.70;70.90
68691;DHT22;55675;49.588;8.640;2022-08-19T02:40:14;22.80;70.90
68691;DHT22;55675;49.588;8.640;2022-08-19T02:42:40;22.80;70.30
68691;DHT22;55675;49.588;8.640;2022-08-19T02:45:06;22.80;70.00
68691;DHT22;55675;49.588;8.640;2022-08-19T02:47:33;22.80;69.80
68691;DHT22;55675;49.588;8.640;2022-08-19T02:50:00;22.80;69.80
68691;DHT22;55675;49.588;8.640;2022-08-19T02:52:26;22.80;69.90
68691;DHT22;55675;49.588;8.640;2022-08-19T02:54:52;22.80;69.80
68691;DHT22;55675;49.588;8.640;2022-08-19T02:57:18;22.80;69.50
68691;DHT22;55675;49.588;8.640;2022-08-19T02:59:43;22.90;70.10
68691;DHT22;55675;49.588;8.640;2022-08-19T03:02:09;22.80;70.30
68691;DHT22;55675;49.588;8.640;2022-08-19T03:04:34;22.90;70.50
68691;DHT22;55675;49.588;8.640;2022-08-19T03:07:00;22.80;70.60
68691;DHT22;55675;49.588;8.640;2022-08-19T03:09:25;22.80;70.50
68691;DHT22;55675;49.588;8.640;2022-08-19T03:11:51;22.80;70.60
68691;DHT22;55675;49.588;8.640;2022-08-19T03:14:16;22.70;70.70
68691;DHT22;55675;49.588;8.640;2022-08-19T03:16:52;22.70;71.00
68691;DHT22;55675;49.588;8.640;2022-08-19T03:19:19;22.60;71.30
68691;DHT22;55675;49.588;8.640;2022-08-19T03:21:45;22.60;71.40
68691;DHT22;55675;49.588;8.640;2022-08-19T03:24:12;22.60;71.80
68691;DHT22;55675;49.588;8.640;2022-08-19T03:26:40;22.50;71.90
68691;DHT22;55675;49.588;8.640;2022-08-19T03:29:06;22.40;72.00
68691;DHT22;55675;49.588;8.640;2022-08-19T03:31:33;22.30;72.40
68691;DHT22;55675;49.588;8.640;2022-08-19T03:33:59;22.20;72.60
68691;DHT22;55675;49.588;8.640;2022-08-19T03:36:26;22.20;72.70
68691;DHT22;55675;49.588;8.640;2022-08-19T03:38:54;22.20;73.00
68691;DHT22;55675;49.588;8.640;2022-08-19T03:41:32;22.20;73.10
68691;DHT22;55675;49.588;8.640;2022-08-19T03:43:58;22.20;73.20
68691;DHT22;55675;49.588;8.640;2022-08-19T03:48:53;22.10;73.30
68691;DHT22;55675;49.588;8.640;2022-08-19T03:51:28;22.10;73.40
68691;DHT22;55675;49.588;8.640;2022-08-19T03:53:55;22.10;73.50
68691;DHT22;55675;49.588;8.640;2022-08-19T03:56:22;22.10;73.40
68691;DHT22;55675;49.588;8.640;2022-08-19T03:58:48;22.10;73.50
68691;DHT22;55675;49.588;8.640;2022-08-19T04:01:17;22.10;73.70
68691;DHT22;55675;49.588;8.640;2022-08-19T04:03:44;22.20;73.70
68691;DHT22;55675;49.588;8.640;2022-08-19T04:08:39;22.10;73.70
68691;DHT22;55675;49.588;8.640;2022-08-19T04:11:10;22.10;73.60
68691;DHT22;55675;49.588;8.640;2022-08-19T04:13:36;22.10;73.90
68691;DHT22;55675;49.588;8.640;2022-08-19T04:16:01;22.10;73.80
68691;DHT22;55675;49.588;8.640;2022-08-19T04:18:27;22.20;74.10
68691;DHT22;55675;49.588;8.640;2022-08-19T04:20:55;22.10;73.90
68691;DHT22;55675;49.588;8.640;2022-08-19T04:23:20;22.10;74.20
68691;DHT22;55675;49.588;8.640;2022-08-19T04:25:46;22.10;74.40
68691;DHT22;55675;49.588;8.640;2022-08-19T04:28:12;22.10;74.40
68691;DHT22;55675;49.588;8.640;2022-08-19T04:30:40;22.00;74.60
68691;DHT22;55675;49.588;8.640;2022-08-19T04:33:06;22.00;74.90
68691;DHT22;55675;49.588;8.640;2022-08-19T04:35:46;22.00;75.10
68691;DHT22;55675;49.588;8.640;2022-08-19T04:38:13;22.00;75.10
68691;DHT22;55675;49.588;8.640;2022-08-19T04:40:50;22.00;75.00
68691;DHT22;55675;49.588;8.640;2022-08-19T04:43:36;22.10;75.10
68691;DHT22;55675;49.588;8.640;2022-08-19T04:46:11;22.00;75.00
68691;DHT22;55675;49.588;8.640;2022-08-19T04:48:38;22.00;75.00
68691;DHT22;55675;49.588;8.640;2022-08-19T04:51:10;22.00;74.70
68691;DHT22;55675;49.588;8.640;2022-08-19T04:53:37;22.00;74.60
68691;DHT22;55675;49.588;8.640;2022-08-19T04:56:11;22.10;74.40
68691;DHT22;55675;49.588;8.640;2022-08-19T04:58:39;22.10;74.30
68691;DHT22;55675;49.588;8.640;2022-08-19T05:01:09;22.20;73.90
68691;DHT22;55675;49.588;8.640;2022-08-19T05:03:35;22.20;73.70
68691;DHT22;55675;49.588;8.640;2022-08-19T05:06:06;22.20;74.50
68691;DHT22;55675;49.588;8.640;2022-08-19T05:08:34;22.20;73.80
68691;DHT22;55675;49.588;8.640;2022-08-19T05:11:11;22.20;73.70
68691;DHT22;55675;49.588;8.640;2022-08-19T05:13:37;22.30;73.70
68691;DHT22;55675;49.588;8.640;2022-08-19T05:16:03;22.30;73.60
68691;DHT22;55675;49.588;8.640;2022-08-19T05:18:29;22.30;73.80
68691;DHT22;55675;49.588;8.640;2022-08-19T05:21:16;22.40;73.90
68691;DHT22;55675;49.588;8.640;2022-08-19T05:24:00;22.40;73.70
68691;DHT22;55675;49.588;8.640;2022-08-19T05:26:27;22.50;73.40
68691;DHT22;55675;49.588;8.640;2022-08-19T05:28:54;22.50;73.20
68691;DHT22;55675;49.588;8.640;2022-08-19T05:31:21;22.50;73.20
68691;DHT22;55675;49.588;8.640;2022-08-19T05:33:46;22.60;73.30
68691;DHT22;55675;49.588;8.640;2022-08-19T05:36:12;22.60;72.90
68691;DHT22;55675;49.588;8.640;2022-08-19T05:38:38;22.60;72.70
68691;DHT22;55675;49.588;8.640;2022-08-19T05:41:11;22.60;72.70
68691;DHT22;55675;49.588;8.640;2022-08-19T05:43:37;22.60;72.90
68691;DHT22;55675;49.588;8.640;2022-08-19T05:46:05;22.60;73.60
68691;DHT22;55675;49.588;8.640;2022-08-19T05:48:32;22.70;72.80
68691;DHT22;55675;49.588;8.640;2022-08-19T05:51:02;22.70;73.10
68691;DHT22;55675;49.588;8.640;2022-08-19T05:53:28;22.70;73.10
68691;DHT22;55675;49.588;8.640;2022-08-19T05:55:53;22.70;72.70
68691;DHT22;55675;49.588;8.640;2022-08-19T05:58:19;22.80;72.40
68691;DHT22;55675;49.588;8.640;2022-08-19T06:00:44;22.80;72.00
68691;DHT22;55675;49.588;8.640;2022-08-19T06:03:10;22.80;72.10
68691;DHT22;55675;49.588;8.640;2022-08-19T06:05:36;22.90;72.40
68691;DHT22;55675;49.588;8.640;2022-08-19T06:08:02;22.90;72.30
68691;DHT22;55675;49.588;8.640;2022-08-19T06:10:28;23.00;72.00
68691;DHT22;55675;49.588;8.640;2022-08-19T06:12:53;23.10;71.90
68691;DHT22;55675;49.588;8.640;2022-08-19T06:15:19;23.20;71.60
68691;DHT22;55675;49.588;8.640;2022-08-19T06:17:45;23.20;70.70
68691;DHT22;55675;49.588;8.640;2022-08-19T06:20:13;23.30;70.40
68691;DHT22;55675;49.588;8.640;2022-08-19T06:22:41;23.30;70.10
68691;DHT22;55675;49.588;8.640;2022-08-19T06:25:07;23.30;69.50
68691;DHT22;55675;49.588;8.640;2022-08-19T06:27:34;23.30;68.90
68691;DHT22;55675;49.588;8.640;2022-08-19T06:30:01;23.30;69.30
68691;DHT22;55675;49.588;8.640;2022-08-19T06:32:26;23.20;68.80
68691;DHT22;55675;49.588;8.640;2022-08-19T06:34:52;23.20;68.60
68691;DHT22;55675;49.588;8.640;2022-08-19T06:37:17;23.20;68.60
68691;DHT22;55675;49.588;8.640;2022-08-19T06:39:44;23.20;68.70
68691;DHT22;55675;49.588;8.640;2022-08-19T06:42:10;23.30;68.70
68691;DHT22;55675;49.588;8.640;2022-08-19T06:44:40;23.50;69.10
68691;DHT22;55675;49.588;8.640;2022-08-19T06:47:09;23.70;67.90
68691;DHT22;55675;49.588;8.640;2022-08-19T06:49:36;23.90;66.90
68691;DHT22;55675;49.588;8.640;2022-08-19T06:52:02;24.10;66.40
68691;DHT22;55675;49.588;8.640;2022-08-19T06:54:28;24.20;65.20
68691;DHT22;55675;49.588;8.640;2022-08-19T06:56:55;24.30;64.90
68691;DHT22;55675;49.588;8.640;2022-08-19T06:59:23;24.40;63.40
68691;DHT22;55675;49.588;8.640;2022-08-19T07:01:54;24.40;63.30
68691;DHT22;55675;49.588;8.640;2022-08-19T07:04:22;24.40;63.00
68691;DHT22;55675;49.588;8.640;2022-08-19T07:06:49;24.30;62.90
